Terminal Aerodrome Forecast
Issued by NWS

Home | Current Version | Previous Version | Text Only | Print | Product List | Glossary Off
Versions: 1 2 3 4 5 6 7 8 9 10 11 12 13 14 15 16 17 18

000
FTUS43 KMPX 240520
TAFAXN
TAF
KAXN 240520Z 2406/2506 25018G24KT P6SM SCT025 OVC045
     FM240900 29017G25KT P6SM -SN BKN025 OVC035
     FM241200 31019G26KT P6SM BKN018 OVC030
     FM241400 32020G32KT P6SM BKN025
     FM241600 32019G30KT P6SM SCT025
     FM250000 32012KT P6SM FEW025 BKN120=

USA.gov is the U.S. government's official web portal to all federal, state and local government web resources and services.